createdAt,value
2024-01-31T00:00:46.506Z,1.20
2024-01-31T00:03:13.089Z,0.90
2024-01-31T00:05:42.191Z,0.85
2024-01-31T00:08:08.865Z,1.15
2024-01-31T00:10:35.581Z,1.27
2024-01-31T00:13:02.310Z,0.95
2024-01-31T00:15:28.811Z,1.13
2024-01-31T00:17:56.160Z,1.10
2024-01-31T00:20:23.182Z,0.90
2024-01-31T00:22:52.233Z,0.82
2024-01-31T00:25:21.250Z,1.08
2024-01-31T00:27:50.636Z,1.00
2024-01-31T00:30:17.315Z,1.02
2024-01-31T00:32:44.132Z,1.40
2024-01-31T00:35:10.919Z,1.00
2024-01-31T00:37:37.678Z,0.82
2024-01-31T00:40:07.169Z,0.90
2024-01-31T00:42:33.847Z,0.90
2024-01-31T00:45:00.571Z,1.10
2024-01-31T00:47:27.743Z,1.33
2024-01-31T00:49:54.547Z,1.20
2024-01-31T00:52:23.452Z,1.15
2024-01-31T00:54:50.168Z,1.20
2024-01-31T00:57:19.625Z,0.93
2024-01-31T00:59:46.176Z,1.00
2024-01-31T01:02:12.818Z,1.00
2024-01-31T01:04:41.849Z,1.10
2024-01-31T01:07:08.541Z,0.73
2024-01-31T01:09:35.864Z,1.02
2024-01-31T01:12:04.080Z,1.20
2024-01-31T01:14:33.119Z,1.08
2024-01-31T01:16:59.679Z,0.75
2024-01-31T01:19:26.214Z,0.90
2024-01-31T01:21:52.751Z,1.10
2024-01-31T01:24:19.407Z,0.70
2024-01-31T01:26:48.270Z,0.82
2024-01-31T01:29:14.859Z,1.05
2024-01-31T01:31:41.495Z,1.33
2024-01-31T01:34:08.178Z,1.20
2024-01-31T01:36:34.830Z,1.05
2024-01-31T01:39:04.515Z,1.02
2024-01-31T01:41:31.109Z,0.70
2024-01-31T01:43:59.839Z,0.63
2024-01-31T01:46:26.699Z,0.95
2024-01-31T01:48:55.982Z,1.25
2024-01-31T01:51:26.792Z,0.98
2024-01-31T01:53:53.788Z,0.90
2024-01-31T01:56:23.162Z,1.15
2024-01-31T01:58:53.193Z,0.75
2024-01-31T02:01:23.783Z,1.10
2024-01-31T02:03:56.127Z,1.00
2024-01-31T02:06:25.233Z,0.80
2024-01-31T02:08:52.717Z,1.02
2024-01-31T02:11:21.716Z,1.20
2024-01-31T02:13:50.753Z,1.10
2024-01-31T02:16:17.462Z,1.80
2024-01-31T02:18:46.271Z,1.40
2024-01-31T02:21:17.245Z,1.17
2024-01-31T02:23:46.353Z,1.30
2024-01-31T02:26:15.483Z,1.20
2024-01-31T02:28:42.132Z,1.05
2024-01-31T02:31:08.728Z,1.35
2024-01-31T02:33:35.302Z,1.48
2024-01-31T02:36:04.315Z,1.08
2024-01-31T02:38:33.173Z,1.35
2024-01-31T02:41:01.972Z,1.42
2024-01-31T02:43:29.015Z,1.40
2024-01-31T02:45:55.704Z,1.13
2024-01-31T02:48:22.616Z,0.95
2024-01-31T02:50:49.277Z,1.35
2024-01-31T02:53:15.906Z,1.45
2024-01-31T02:55:44.818Z,1.15
2024-01-31T02:58:13.094Z,1.17
2024-01-31T03:03:09.747Z,0.90
2024-01-31T03:05:39.214Z,1.13
2024-01-31T03:08:05.973Z,1.02
2024-01-31T03:10:33.780Z,1.25
2024-01-31T03:13:02.885Z,1.00
2024-01-31T03:15:29.556Z,1.38
2024-01-31T03:17:56.508Z,0.95
2024-01-31T03:20:25.338Z,1.17
2024-01-31T03:22:52.031Z,1.00
2024-01-31T03:25:18.551Z,1.10
2024-01-31T03:27:45.559Z,1.05
2024-01-31T03:30:12.594Z,1.00
2024-01-31T03:32:39.599Z,1.33
2024-01-31T03:35:06.737Z,0.85
2024-01-31T03:37:33.454Z,2.05
2024-01-31T03:40:02.442Z,0.90
2024-01-31T03:42:31.373Z,1.23
2024-01-31T03:45:00.237Z,1.30
2024-01-31T03:47:26.855Z,1.20
2024-01-31T03:49:58.777Z,1.40
2024-01-31T03:52:27.701Z,1.00
2024-01-31T03:54:54.353Z,1.05
2024-01-31T03:57:23.253Z,0.90
2024-01-31T03:59:52.272Z,1.08
2024-01-31T04:02:18.862Z,1.17
2024-01-31T04:04:45.515Z,1.10
2024-01-31T04:07:12.138Z,0.98
2024-01-31T04:09:43.367Z,0.90
2024-01-31T04:12:10.289Z,1.00
2024-01-31T04:14:36.761Z,1.13
2024-01-31T04:17:03.366Z,0.70
2024-01-31T04:19:32.940Z,1.17
2024-01-31T04:21:59.739Z,1.92
2024-01-31T04:24:28.709Z,0.82
2024-01-31T04:26:55.292Z,1.33
2024-01-31T04:29:24.110Z,0.90
2024-01-31T04:31:53.765Z,1.13
2024-01-31T04:34:22.105Z,1.30
2024-01-31T04:36:49.065Z,1.15
2024-01-31T04:39:17.952Z,1.17
2024-01-31T04:41:49.134Z,0.93
2024-01-31T04:44:17.904Z,1.40
2024-01-31T04:46:46.849Z,1.35
2024-01-31T04:49:13.545Z,1.48
2024-01-31T04:51:43.817Z,1.23
2024-01-31T04:54:16.066Z,1.02
2024-01-31T04:56:44.163Z,1.20
2024-01-31T04:59:13.492Z,1.08
2024-01-31T05:01:40.111Z,1.42
2024-01-31T05:04:06.861Z,1.08
2024-01-31T05:06:35.992Z,1.00
2024-01-31T05:09:05.038Z,1.10
2024-01-31T05:11:31.588Z,1.30
2024-01-31T05:13:58.251Z,1.27
2024-01-31T05:16:27.109Z,1.40
2024-01-31T05:18:53.787Z,1.13
2024-01-31T05:21:20.412Z,1.60
2024-01-31T05:23:49.365Z,1.20
2024-01-31T05:26:15.914Z,1.23
2024-01-31T05:28:44.705Z,1.60
2024-01-31T05:31:11.756Z,1.23
2024-01-31T05:33:38.366Z,1.33
2024-01-31T05:36:05.092Z,1.73
2024-01-31T05:38:31.786Z,1.33
2024-01-31T05:40:58.468Z,1.35
2024-01-31T05:43:25.143Z,1.40
2024-01-31T05:45:51.747Z,1.90
2024-01-31T05:48:21.074Z,1.23
2024-01-31T05:50:52.469Z,1.70
2024-01-31T05:53:19.244Z,1.25
2024-01-31T05:55:48.220Z,1.38
2024-01-31T05:58:14.924Z,1.45
2024-01-31T06:00:42.098Z,1.35
2024-01-31T06:03:09.107Z,1.90
2024-01-31T06:05:35.855Z,1.40
2024-01-31T06:08:05.162Z,1.42
2024-01-31T06:10:33.775Z,1.67
2024-01-31T06:13:00.443Z,1.52
2024-01-31T06:15:29.322Z,1.25
2024-01-31T06:17:58.433Z,1.52
2024-01-31T06:20:25.053Z,1.42
2024-01-31T06:22:51.722Z,1.95
2024-01-31T06:25:20.790Z,1.23
2024-01-31T06:27:48.214Z,2.35
2024-01-31T06:30:21.252Z,1.90
2024-01-31T06:32:49.225Z,1.55
2024-01-31T06:35:18.496Z,1.83
2024-01-31T06:37:45.320Z,1.65
2024-01-31T06:40:12.091Z,1.52
2024-01-31T06:42:41.156Z,1.70
2024-01-31T06:45:12.166Z,1.70
2024-01-31T06:47:42.697Z,1.45
2024-01-31T06:50:12.826Z,1.90
2024-01-31T06:52:39.594Z,1.52
2024-01-31T06:55:06.359Z,1.80
2024-01-31T06:57:34.544Z,1.85
2024-01-31T07:02:30.917Z,2.13
2024-01-31T07:04:59.660Z,2.08
2024-01-31T07:07:26.296Z,2.35
2024-01-31T07:09:52.870Z,2.20
2024-01-31T07:12:19.824Z,2.05
2024-01-31T07:14:46.427Z,2.45
2024-01-31T07:17:15.643Z,2.10
2024-01-31T07:19:45.197Z,3.00
2024-01-31T07:22:11.760Z,2.72
2024-01-31T07:24:41.867Z,2.72
2024-01-31T07:27:08.513Z,2.72
2024-01-31T07:29:35.181Z,3.13
2024-01-31T07:32:01.763Z,2.80
2024-01-31T07:34:30.776Z,3.45
2024-01-31T07:36:57.522Z,3.05
2024-01-31T07:39:24.122Z,3.60
2024-01-31T07:41:53.758Z,3.58
2024-01-31T07:44:20.453Z,3.25
2024-01-31T07:46:47.254Z,3.75
2024-01-31T07:49:14.215Z,3.78
2024-01-31T07:51:45.460Z,3.85
2024-01-31T07:54:12.479Z,3.90
2024-01-31T07:56:41.531Z,4.32
2024-01-31T07:59:10.978Z,4.45
2024-01-31T08:01:37.666Z,4.00
2024-01-31T08:04:05.234Z,4.35
2024-01-31T08:06:32.019Z,4.25
2024-01-31T08:09:05.214Z,5.57
2024-01-31T08:11:44.605Z,3.78
2024-01-31T08:14:11.872Z,4.30
2024-01-31T08:16:38.631Z,4.88
2024-01-31T08:19:05.447Z,4.88
2024-01-31T08:21:35.096Z,4.20
2024-01-31T08:24:01.706Z,3.88
2024-01-31T08:26:30.675Z,4.10
2024-01-31T08:29:10.568Z,4.55
2024-01-31T08:31:42.981Z,4.05
2024-01-31T08:34:11.271Z,3.97
2024-01-31T08:36:37.887Z,3.85
2024-01-31T08:39:04.557Z,3.50
2024-01-31T08:41:31.514Z,3.70
2024-01-31T08:44:00.346Z,3.83
2024-01-31T08:46:28.820Z,3.30
2024-01-31T08:49:00.713Z,3.55
2024-01-31T08:51:27.812Z,3.67
2024-01-31T08:53:54.621Z,4.15
2024-01-31T08:56:21.242Z,3.92
2024-01-31T08:58:47.998Z,4.10
2024-01-31T09:01:14.629Z,3.92
2024-01-31T09:03:41.316Z,4.15
2024-01-31T09:06:07.942Z,4.65
2024-01-31T09:08:34.578Z,4.43
2024-01-31T09:11:06.054Z,4.28
2024-01-31T09:13:34.822Z,5.07
2024-01-31T09:16:01.583Z,6.13
2024-01-31T09:18:28.573Z,4.50
2024-01-31T09:20:55.420Z,4.75
2024-01-31T09:23:22.620Z,4.97
2024-01-31T09:25:51.192Z,5.13
2024-01-31T09:28:17.833Z,4.82
2024-01-31T09:30:45.297Z,4.03
2024-01-31T09:33:14.060Z,4.38
2024-01-31T09:35:41.059Z,4.88
2024-01-31T09:38:17.640Z,4.07
2024-01-31T09:40:44.430Z,4.13
2024-01-31T09:43:11.000Z,4.47
2024-01-31T09:45:39.888Z,4.32
2024-01-31T09:48:11.322Z,4.70
2024-01-31T09:50:40.285Z,4.57
2024-01-31T09:53:15.498Z,4.13
2024-01-31T09:55:44.694Z,4.82
2024-01-31T09:58:11.865Z,4.45
2024-01-31T10:00:41.127Z,3.92
2024-01-31T10:03:10.070Z,4.28
2024-01-31T10:05:39.250Z,4.53
2024-01-31T10:08:06.172Z,3.47
2024-01-31T10:10:35.490Z,3.78
2024-01-31T10:13:02.248Z,3.85
2024-01-31T10:15:29.895Z,3.80
2024-01-31T10:17:56.535Z,3.63
2024-01-31T10:20:23.264Z,3.72
2024-01-31T10:22:52.878Z,3.25
2024-01-31T10:25:20.121Z,2.58
2024-01-31T10:27:52.494Z,3.38
2024-01-31T10:30:19.445Z,3.13
2024-01-31T10:32:47.144Z,3.17
2024-01-31T10:37:55.986Z,6.38
2024-01-31T10:40:28.899Z,4.78
2024-01-31T10:42:56.637Z,4.07
2024-01-31T10:45:24.513Z,3.55
2024-01-31T10:47:51.351Z,3.72
2024-01-31T10:50:18.215Z,4.50
2024-01-31T10:52:45.416Z,4.47
2024-01-31T10:55:15.864Z,3.75
2024-01-31T10:57:47.795Z,4.05
2024-01-31T11:00:32.471Z,4.20
2024-01-31T11:02:59.548Z,4.70
2024-01-31T11:05:28.559Z,5.35
2024-01-31T11:08:00.005Z,5.47
2024-01-31T11:10:29.224Z,5.80
2024-01-31T11:13:07.958Z,5.50
2024-01-31T11:15:36.273Z,5.53
2024-01-31T11:18:14.058Z,5.75
2024-01-31T11:20:53.344Z,5.65
2024-01-31T11:23:24.703Z,6.43
2024-01-31T11:25:52.585Z,6.63
2024-01-31T11:28:20.397Z,7.20
2024-01-31T11:30:53.158Z,6.95
2024-01-31T11:33:23.334Z,9.60
2024-01-31T11:35:51.057Z,8.90
2024-01-31T11:38:18.618Z,8.15
2024-01-31T11:40:45.347Z,7.28
2024-01-31T11:43:11.952Z,7.22
2024-01-31T11:45:44.400Z,7.35
2024-01-31T11:48:17.566Z,7.68
2024-01-31T11:50:47.008Z,7.55
2024-01-31T11:53:16.292Z,6.95
2024-01-31T11:55:42.970Z,6.97
2024-01-31T11:58:12.184Z,6.68
2024-01-31T12:00:41.257Z,8.07
2024-01-31T12:03:08.063Z,7.55
2024-01-31T12:05:35.002Z,7.65
2024-01-31T12:08:03.903Z,7.63
2024-01-31T12:10:30.514Z,7.10
2024-01-31T12:13:00.692Z,8.02
2024-01-31T12:15:32.263Z,7.82
2024-01-31T12:18:00.809Z,7.10
2024-01-31T12:20:27.833Z,7.70
2024-01-31T12:22:54.429Z,7.35
2024-01-31T12:25:21.006Z,7.72
2024-01-31T12:27:49.974Z,8.27
2024-01-31T12:30:17.595Z,7.05
2024-01-31T12:32:46.890Z,6.65
2024-01-31T12:35:14.388Z,6.85
2024-01-31T12:37:41.071Z,6.35
2024-01-31T12:40:10.405Z,5.80
2024-01-31T12:42:37.477Z,6.90
2024-01-31T12:45:05.454Z,6.00
2024-01-31T12:47:32.145Z,5.60
2024-01-31T12:49:58.868Z,5.68
2024-01-31T12:52:26.584Z,6.20
2024-01-31T12:57:22.323Z,6.45
2024-01-31T13:03:32.145Z,6.00
2024-01-31T13:05:59.312Z,6.57
2024-01-31T13:08:32.847Z,6.45
2024-01-31T13:11:07.791Z,6.28
2024-01-31T13:13:39.230Z,7.20
2024-01-31T13:16:10.745Z,7.53
2024-01-31T13:18:42.282Z,5.57
2024-01-31T13:21:08.929Z,6.82
2024-01-31T13:23:41.489Z,6.90
2024-01-31T13:26:08.762Z,5.57
2024-01-31T13:28:35.548Z,6.38
2024-01-31T13:31:04.679Z,6.85
2024-01-31T13:33:33.736Z,6.55
2024-01-31T13:36:02.998Z,6.07
2024-01-31T13:38:37.952Z,6.65
2024-01-31T13:41:04.841Z,6.13
2024-01-31T13:43:31.556Z,5.70
2024-01-31T13:46:00.269Z,5.70
2024-01-31T13:48:31.985Z,5.25
2024-01-31T13:51:01.074Z,5.10
2024-01-31T13:53:35.303Z,4.70
2024-01-31T13:56:01.993Z,3.92
2024-01-31T13:58:28.679Z,4.10
2024-01-31T14:00:57.692Z,3.90
2024-01-31T14:03:26.704Z,3.95
2024-01-31T14:05:53.492Z,3.72
2024-01-31T14:08:21.077Z,3.40
2024-01-31T14:10:48.993Z,3.72
2024-01-31T14:13:16.185Z,3.35
2024-01-31T14:15:42.796Z,3.35
2024-01-31T14:18:13.612Z,3.10
2024-01-31T14:20:42.102Z,3.53
2024-01-31T14:25:43.417Z,2.95
2024-01-31T14:28:10.077Z,3.30
2024-01-31T14:30:36.716Z,2.22
2024-01-31T14:33:03.665Z,2.42
2024-01-31T14:35:33.546Z,2.90
2024-01-31T14:38:00.077Z,2.40
2024-01-31T14:40:27.575Z,2.60
2024-01-31T14:42:54.153Z,2.90
2024-01-31T14:45:23.270Z,2.33
2024-01-31T14:47:52.273Z,2.50
2024-01-31T14:50:18.823Z,2.72
2024-01-31T14:52:48.287Z,2.47
2024-01-31T14:55:17.212Z,2.80
2024-01-31T14:57:46.336Z,2.50
2024-01-31T15:00:13.497Z,2.58
2024-01-31T15:02:40.098Z,2.30
2024-01-31T15:05:07.148Z,2.55
2024-01-31T15:07:33.956Z,2.50
2024-01-31T15:10:00.777Z,2.45
2024-01-31T15:12:29.757Z,2.80
2024-01-31T15:14:56.608Z,2.20
2024-01-31T15:17:24.599Z,2.47
2024-01-31T15:19:51.380Z,2.20
2024-01-31T15:22:18.052Z,2.17
2024-01-31T15:24:46.131Z,2.45
2024-01-31T15:29:41.690Z,1.83
2024-01-31T15:32:10.817Z,2.50
2024-01-31T15:34:38.356Z,2.25
2024-01-31T15:37:04.945Z,2.63
2024-01-31T15:39:33.768Z,2.17
2024-01-31T15:42:00.420Z,2.22
2024-01-31T15:44:29.526Z,2.15
2024-01-31T15:46:56.879Z,2.63
2024-01-31T15:49:26.775Z,2.22
2024-01-31T15:51:55.892Z,1.80
2024-01-31T15:54:22.531Z,2.15
2024-01-31T15:56:53.821Z,2.05
2024-01-31T15:59:20.755Z,1.85
2024-01-31T16:01:50.065Z,2.58
2024-01-31T16:04:16.854Z,3.03
2024-01-31T16:06:56.419Z,2.30
2024-01-31T16:09:24.067Z,2.25
2024-01-31T16:11:53.777Z,2.38
2024-01-31T16:14:20.560Z,2.40
2024-01-31T16:16:47.545Z,2.60
2024-01-31T16:19:17.772Z,2.28
2024-01-31T16:21:47.317Z,1.73
2024-01-31T16:24:14.584Z,1.75
2024-01-31T16:26:41.459Z,1.88
2024-01-31T16:29:08.164Z,2.00
2024-01-31T16:31:40.142Z,1.90
2024-01-31T16:34:06.859Z,2.00
2024-01-31T16:36:33.527Z,2.03
2024-01-31T16:39:03.892Z,2.33
2024-01-31T16:41:30.607Z,2.08
2024-01-31T16:43:59.779Z,1.92
2024-01-31T16:46:28.526Z,2.30
2024-01-31T16:48:57.570Z,2.30
2024-01-31T16:51:26.777Z,2.22
2024-01-31T16:53:53.399Z,2.50
2024-01-31T16:56:23.047Z,2.53
2024-01-31T16:58:49.658Z,2.53
2024-01-31T17:01:17.343Z,2.63
2024-01-31T17:03:44.147Z,3.40
2024-01-31T17:06:10.959Z,3.20
2024-01-31T17:08:37.952Z,3.22
2024-01-31T17:11:06.961Z,3.22
2024-01-31T17:13:36.053Z,3.63
2024-01-31T17:16:05.168Z,3.20
2024-01-31T17:18:31.883Z,3.60
2024-01-31T17:21:01.470Z,3.67
2024-01-31T17:23:32.574Z,3.83
2024-01-31T17:25:59.159Z,3.38
2024-01-31T17:28:30.972Z,3.97
2024-01-31T17:30:57.606Z,3.78
2024-01-31T17:33:24.266Z,3.25
2024-01-31T17:35:53.726Z,3.42
2024-01-31T17:38:22.829Z,3.72
2024-01-31T17:40:49.733Z,3.10
2024-01-31T17:43:16.531Z,3.45
2024-01-31T17:45:45.428Z,2.92
2024-01-31T17:48:12.210Z,3.63
2024-01-31T17:50:38.878Z,3.45
2024-01-31T17:53:05.431Z,3.42
2024-01-31T17:55:32.356Z,4.22
2024-01-31T17:57:59.349Z,3.92
2024-01-31T18:00:25.951Z,3.70
2024-01-31T18:02:53.970Z,3.13
2024-01-31T18:05:22.763Z,3.08
2024-01-31T18:07:49.325Z,3.55
2024-01-31T18:10:20.729Z,3.72
2024-01-31T18:12:47.380Z,2.83
2024-01-31T18:15:19.506Z,3.03
2024-01-31T18:17:48.028Z,3.25
2024-01-31T18:20:17.624Z,3.60
2024-01-31T18:22:49.310Z,3.45
2024-01-31T18:25:15.942Z,3.55
2024-01-31T18:27:42.735Z,3.42
2024-01-31T18:30:14.407Z,2.97
2024-01-31T18:32:41.395Z,2.92
2024-01-31T18:35:08.581Z,3.42
2024-01-31T18:37:38.055Z,2.35
2024-01-31T18:40:06.102Z,2.53
2024-01-31T18:42:32.630Z,3.38
2024-01-31T18:44:59.769Z,2.13
2024-01-31T18:47:26.642Z,2.55
2024-01-31T18:49:55.562Z,2.60
2024-01-31T18:52:24.652Z,2.20
2024-01-31T18:54:53.586Z,2.55
2024-01-31T18:57:20.294Z,2.17
2024-01-31T18:59:46.940Z,2.65
2024-01-31T19:02:15.792Z,2.25
2024-01-31T19:04:48.761Z,2.90
2024-01-31T19:07:22.351Z,2.17
2024-01-31T19:09:54.104Z,2.45
2024-01-31T19:12:25.999Z,1.83
2024-01-31T19:14:53.098Z,2.55
2024-01-31T19:17:26.191Z,2.40
2024-01-31T19:19:56.243Z,2.80
2024-01-31T19:22:25.601Z,2.15
2024-01-31T19:24:55.661Z,2.55
2024-01-31T19:27:23.227Z,2.50
2024-01-31T19:29:50.074Z,2.63
2024-01-31T19:32:18.913Z,2.45
2024-01-31T19:34:45.820Z,3.38
2024-01-31T19:37:12.552Z,3.55
2024-01-31T19:39:39.218Z,3.22
2024-01-31T19:42:05.953Z,3.47
2024-01-31T19:44:32.670Z,3.25
2024-01-31T19:47:00.131Z,3.08
2024-01-31T19:49:29.576Z,3.78
2024-01-31T19:51:58.900Z,3.80
2024-01-31T19:54:26.027Z,4.20
2024-01-31T19:56:52.771Z,3.25
2024-01-31T19:59:19.335Z,3.72
2024-01-31T20:01:46.807Z,3.85
2024-01-31T20:04:14.270Z,3.38
2024-01-31T20:06:41.923Z,3.50
2024-01-31T20:09:09.144Z,4.60
2024-01-31T20:11:38.831Z,3.20
2024-01-31T20:14:07.695Z,3.90
2024-01-31T20:16:36.614Z,3.78
2024-01-31T20:19:04.241Z,3.45
2024-01-31T20:21:30.985Z,2.95
2024-01-31T20:24:01.944Z,3.40
2024-01-31T20:26:35.146Z,2.67
2024-01-31T20:29:01.745Z,3.22
2024-01-31T20:31:28.543Z,2.97
2024-01-31T20:33:57.616Z,3.00
2024-01-31T20:36:24.234Z,3.22
2024-01-31T20:38:53.250Z,2.80
2024-01-31T20:41:27.861Z,2.90
2024-01-31T20:43:54.574Z,2.45
2024-01-31T20:46:24.342Z,2.22
2024-01-31T20:48:51.664Z,2.03
2024-01-31T20:51:23.466Z,2.42
2024-01-31T20:53:53.138Z,2.53
2024-01-31T20:56:22.976Z,1.95
2024-01-31T20:58:53.687Z,2.08
2024-01-31T21:01:21.341Z,2.05
2024-01-31T21:03:50.234Z,2.95
2024-01-31T21:06:19.214Z,2.25
2024-01-31T21:08:48.491Z,2.28
2024-01-31T21:11:18.278Z,2.47
2024-01-31T21:13:44.996Z,1.80
2024-01-31T21:16:14.196Z,2.38
2024-01-31T21:18:40.975Z,2.60
2024-01-31T21:21:08.092Z,2.20
2024-01-31T21:23:37.168Z,2.20
2024-01-31T21:26:06.171Z,2.15
2024-01-31T21:28:32.731Z,2.20
2024-01-31T21:30:59.336Z,1.98
2024-01-31T21:33:28.521Z,2.40
2024-01-31T21:35:56.251Z,2.08
2024-01-31T21:38:25.158Z,3.03
2024-01-31T21:40:54.204Z,2.35
2024-01-31T21:43:21.098Z,3.08
2024-01-31T21:45:47.762Z,2.55
2024-01-31T21:48:16.675Z,2.50
2024-01-31T21:50:43.488Z,2.47
2024-01-31T21:53:10.030Z,2.95
2024-01-31T21:55:37.992Z,3.13
2024-01-31T21:58:07.209Z,2.53
2024-01-31T22:00:33.799Z,2.72
2024-01-31T22:03:00.989Z,2.58
2024-01-31T22:05:28.136Z,2.35
2024-01-31T22:07:54.784Z,2.85
2024-01-31T22:10:21.415Z,2.85
2024-01-31T22:12:49.055Z,2.95
2024-01-31T22:15:15.984Z,3.20
2024-01-31T22:17:42.763Z,2.95
2024-01-31T22:20:19.299Z,3.20
2024-01-31T22:22:56.360Z,3.75
2024-01-31T22:25:27.828Z,3.35
2024-01-31T22:27:54.759Z,3.50
2024-01-31T22:30:23.774Z,3.42
2024-01-31T22:32:50.468Z,3.67
2024-01-31T22:35:17.139Z,3.60
2024-01-31T22:37:45.798Z,3.97
2024-01-31T22:40:13.048Z,3.80
2024-01-31T22:42:39.749Z,4.18
2024-01-31T22:45:06.976Z,3.50
2024-01-31T22:47:33.626Z,3.85
2024-01-31T22:50:00.286Z,4.13
2024-01-31T22:52:27.463Z,3.55
2024-01-31T22:55:00.811Z,3.72
2024-01-31T22:59:57.357Z,3.92
2024-01-31T23:02:28.807Z,3.72
2024-01-31T23:05:00.257Z,4.30
2024-01-31T23:07:31.819Z,3.95
2024-01-31T23:09:58.503Z,4.72
2024-01-31T23:12:27.251Z,4.13
2024-01-31T23:14:56.287Z,5.38
2024-01-31T23:17:23.102Z,4.32
2024-01-31T23:19:49.935Z,4.20
2024-01-31T23:22:16.697Z,4.30
2024-01-31T23:24:45.767Z,4.60
2024-01-31T23:27:12.458Z,4.53
2024-01-31T23:29:39.063Z,4.30
2024-01-31T23:32:06.140Z,4.43
2024-01-31T23:34:34.943Z,4.97
2024-01-31T23:37:02.277Z,4.53
2024-01-31T23:39:28.980Z,4.90
2024-01-31T23:41:55.553Z,5.32
2024-01-31T23:44:24.634Z,4.82
2024-01-31T23:46:51.651Z,4.93
2024-01-31T23:49:20.851Z,4.63
2024-01-31T23:51:49.978Z,4.05
2024-01-31T23:54:16.597Z,4.65
2024-01-31T23:56:45.821Z,4.30
2024-01-31T23:59:12.403Z,4.38
